createdAt,value
2022-12-11T00:02:26.695Z,21.52
2022-12-11T00:05:30.063Z,21.27
2022-12-11T00:08:33.292Z,21.29
2022-12-11T00:11:36.493Z,21.26
2022-12-11T00:14:39.761Z,21.19
2022-12-11T00:17:43.950Z,21.11
2022-12-11T00:20:47.164Z,21.29
2022-12-11T00:23:51.170Z,21.15
2022-12-11T00:26:54.354Z,21.07
2022-12-11T00:29:57.633Z,21.17
2022-12-11T00:33:02.841Z,21.09
2022-12-11T00:36:18.376Z,21.03
2022-12-11T00:39:21.587Z,20.62
2022-12-11T00:42:24.776Z,20.81
2022-12-11T00:45:28.038Z,20.74
2022-12-11T00:48:31.349Z,20.72
2022-12-11T00:51:34.768Z,20.75
2022-12-11T00:54:38.000Z,20.69
2022-12-11T00:57:41.140Z,20.70
2022-12-11T01:00:44.711Z,20.40
2022-12-11T01:03:48.231Z,20.49
2022-12-11T01:06:51.427Z,20.62
2022-12-11T01:09:56.925Z,20.65
2022-12-11T01:13:02.437Z,20.52
2022-12-11T01:16:16.319Z,20.58
2022-12-11T01:19:19.706Z,20.59
2022-12-11T01:22:23.144Z,20.60
2022-12-11T01:25:27.897Z,20.70
2022-12-11T01:28:31.118Z,20.22
2022-12-11T01:31:34.569Z,20.14
2022-12-11T01:34:37.791Z,20.38
2022-12-11T01:37:41.591Z,20.38
2022-12-11T01:40:51.879Z,20.32
2022-12-11T01:44:06.947Z,20.41
2022-12-11T01:47:10.637Z,20.45
2022-12-11T01:50:13.894Z,20.50
2022-12-11T01:53:23.518Z,20.33
2022-12-11T01:56:26.986Z,20.35
2022-12-11T01:59:32.333Z,20.23
2022-12-11T02:02:35.556Z,20.27
2022-12-11T02:05:38.830Z,20.23
2022-12-11T02:08:42.053Z,20.35
2022-12-11T02:12:05.045Z,20.50
2022-12-11T02:15:26.531Z,20.48
2022-12-11T02:18:39.920Z,20.06
2022-12-11T02:21:44.370Z,20.29
2022-12-11T02:24:58.868Z,20.10
2022-12-11T02:28:38.742Z,20.19
2022-12-11T02:31:58.889Z,20.23
2022-12-11T02:35:19.930Z,20.27
2022-12-11T02:38:31.372Z,20.34
2022-12-11T02:41:35.919Z,20.42
2022-12-11T02:44:41.922Z,20.44
2022-12-11T02:47:47.200Z,20.39
2022-12-11T02:50:52.940Z,20.59
2022-12-11T02:53:59.065Z,20.38
2022-12-11T02:57:12.455Z,20.01
2022-12-11T03:00:15.823Z,20.15
2022-12-11T03:03:19.147Z,20.31
2022-12-11T03:06:25.465Z,20.22
2022-12-11T03:09:29.420Z,20.27
2022-12-11T03:12:37.184Z,20.38
2022-12-11T03:16:08.882Z,20.29
2022-12-11T03:19:51.120Z,20.45
2022-12-11T03:22:57.020Z,20.52
2022-12-11T03:26:02.342Z,20.61
2022-12-11T03:29:14.435Z,20.64
2022-12-11T03:32:22.302Z,20.69
2022-12-11T03:35:46.463Z,20.50
2022-12-11T03:38:57.210Z,20.11
2022-12-11T03:42:02.691Z,20.05
2022-12-11T03:45:06.908Z,20.04
2022-12-11T03:48:10.570Z,20.29
2022-12-11T03:51:14.281Z,20.28
2022-12-11T03:54:18.352Z,20.84
2022-12-11T03:57:23.967Z,20.88
2022-12-11T04:00:27.236Z,20.51
2022-12-11T04:03:30.611Z,20.41
2022-12-11T04:06:33.883Z,20.60
2022-12-11T04:09:37.211Z,20.72
2022-12-11T04:12:40.402Z,20.85
2022-12-11T04:15:43.703Z,20.70
2022-12-11T04:18:46.944Z,20.74
2022-12-11T04:21:52.596Z,20.56
2022-12-11T04:24:55.790Z,20.42
2022-12-11T04:27:59.089Z,20.52
2022-12-11T04:31:02.351Z,20.35
2022-12-11T04:34:05.749Z,20.41
2022-12-11T04:37:08.981Z,20.48
2022-12-11T04:40:14.861Z,20.44
2022-12-11T04:43:18.097Z,20.27
2022-12-11T04:46:22.852Z,20.10
2022-12-11T04:49:28.551Z,20.14
2022-12-11T04:52:31.783Z,20.25
2022-12-11T04:55:35.020Z,20.23
2022-12-11T04:58:38.948Z,20.31
2022-12-11T05:01:42.321Z,20.18
2022-12-11T05:04:45.675Z,20.12
2022-12-11T05:07:49.248Z,20.07
2022-12-11T05:11:05.411Z,20.25
2022-12-11T05:14:08.993Z,20.28
2022-12-11T05:17:12.248Z,20.23
2022-12-11T05:20:17.379Z,20.20
2022-12-11T05:23:20.626Z,19.99
2022-12-11T05:26:23.803Z,20.23
2022-12-11T05:29:27.214Z,20.24
2022-12-11T05:32:30.456Z,20.11
2022-12-11T05:35:33.866Z,20.15
2022-12-11T05:38:39.613Z,20.20
2022-12-11T05:41:43.035Z,20.26
2022-12-11T05:44:46.297Z,20.09
2022-12-11T05:47:49.595Z,20.03
2022-12-11T05:51:06.661Z,20.19
2022-12-11T05:54:10.453Z,20.40
2022-12-11T05:57:13.649Z,20.56
2022-12-11T06:00:17.086Z,20.65
2022-12-11T06:03:20.326Z,20.51
2022-12-11T06:06:24.261Z,20.21
2022-12-11T06:09:27.449Z,20.17
2022-12-11T06:12:30.646Z,20.24
2022-12-11T06:15:33.995Z,20.33
2022-12-11T06:18:39.483Z,20.39
2022-12-11T06:21:42.585Z,20.48
2022-12-11T06:24:45.863Z,20.02
2022-12-11T06:27:49.133Z,20.05
2022-12-11T06:30:52.343Z,20.15
2022-12-11T06:33:55.951Z,20.09
2022-12-11T06:36:59.281Z,20.09
2022-12-11T06:40:02.784Z,20.25
2022-12-11T06:43:06.019Z,20.13
2022-12-11T06:46:12.031Z,20.35
2022-12-11T06:49:15.239Z,20.48
2022-12-11T06:52:18.793Z,20.28
2022-12-11T06:55:22.230Z,20.29
2022-12-11T06:58:25.418Z,20.41
2022-12-11T07:01:30.688Z,20.25
2022-12-11T07:04:34.032Z,20.01
2022-12-11T07:07:37.204Z,20.16
2022-12-11T07:10:40.358Z,19.80
2022-12-11T07:13:44.129Z,19.57
2022-12-11T07:16:47.391Z,19.38
2022-12-11T07:19:50.626Z,18.78
2022-12-11T07:22:54.951Z,18.63
2022-12-11T07:25:58.401Z,18.81
2022-12-11T07:29:03.437Z,18.86
2022-12-11T07:32:07.172Z,18.73
2022-12-11T07:35:13.078Z,18.50
2022-12-11T07:38:16.597Z,18.36
2022-12-11T07:41:20.147Z,18.41
2022-12-11T07:44:23.474Z,18.07
2022-12-11T07:47:26.657Z,17.77
2022-12-11T07:50:31.289Z,18.05
2022-12-11T07:53:36.076Z,18.57
2022-12-11T07:56:42.943Z,18.40
2022-12-11T07:59:47.625Z,18.31
2022-12-11T08:02:50.938Z,18.29
2022-12-11T08:05:54.597Z,18.27
2022-12-11T08:08:58.881Z,18.23
2022-12-11T08:12:02.092Z,18.52
2022-12-11T08:15:05.691Z,18.59
2022-12-11T08:18:09.012Z,18.50
2022-12-11T08:21:23.863Z,18.63
2022-12-11T08:24:27.232Z,18.63
2022-12-11T08:27:30.726Z,18.79
2022-12-11T08:30:34.000Z,18.75
2022-12-11T08:33:37.979Z,18.77
2022-12-11T08:36:41.754Z,18.67
2022-12-11T08:39:45.947Z,18.56
2022-12-11T08:42:49.187Z,18.45
2022-12-11T08:45:52.398Z,18.44
2022-12-11T08:48:56.382Z,18.35
2022-12-11T08:51:59.511Z,18.47
2022-12-11T08:55:02.732Z,18.46
2022-12-11T08:58:06.013Z,18.39
2022-12-11T09:01:13.710Z,18.41
2022-12-11T09:04:17.053Z,18.51
2022-12-11T09:07:20.162Z,18.45
2022-12-11T09:10:23.368Z,18.07
2022-12-11T09:13:26.511Z,18.29
2022-12-11T09:16:30.275Z,18.37
2022-12-11T09:19:33.646Z,18.06
2022-12-11T09:22:36.775Z,17.93
2022-12-11T09:25:45.701Z,18.03
2022-12-11T09:28:49.271Z,18.09
2022-12-11T09:31:52.463Z,18.19
2022-12-11T09:34:57.886Z,18.21
2022-12-11T09:38:00.980Z,18.05
2022-12-11T09:41:21.934Z,18.09
2022-12-11T09:44:51.058Z,18.03
2022-12-11T09:47:56.887Z,17.96
2022-12-11T09:51:06.806Z,18.01
2022-12-11T09:54:12.734Z,17.98
2022-12-11T09:57:33.346Z,17.94
2022-12-11T10:01:19.317Z,17.74
2022-12-11T10:04:53.468Z,17.80
2022-12-11T10:08:24.172Z,17.90
2022-12-11T10:11:39.022Z,18.09
2022-12-11T10:15:20.887Z,18.12
2022-12-11T10:18:26.134Z,18.12
2022-12-11T10:21:37.985Z,18.00
2022-12-11T10:25:11.116Z,18.11
2022-12-11T10:28:18.110Z,18.06
2022-12-11T10:31:29.943Z,18.22
2022-12-11T10:34:46.189Z,18.34
2022-12-11T10:37:49.393Z,18.26
2022-12-11T10:40:56.242Z,18.13
2022-12-11T10:43:59.582Z,18.05
2022-12-11T10:47:07.472Z,18.22
2022-12-11T10:50:24.513Z,18.33
2022-12-11T10:53:28.195Z,18.25
2022-12-11T10:56:33.709Z,18.11
2022-12-11T10:59:47.395Z,18.15
2022-12-11T11:02:50.643Z,18.28
2022-12-11T11:06:20.121Z,18.57
2022-12-11T11:09:37.328Z,18.96
2022-12-11T11:12:48.918Z,18.83
2022-12-11T11:16:09.306Z,18.73
2022-12-11T11:19:31.859Z,18.61
2022-12-11T11:22:40.076Z,18.58
2022-12-11T11:25:52.767Z,18.70
2022-12-11T11:28:57.668Z,18.63
2022-12-11T11:32:22.650Z,18.53
2022-12-11T11:35:27.780Z,18.51
2022-12-11T11:38:40.655Z,18.60
2022-12-11T11:41:49.541Z,18.64
2022-12-11T11:45:23.344Z,18.43
2022-12-11T11:48:50.634Z,18.54
2022-12-11T11:52:20.831Z,18.45
2022-12-11T11:55:41.234Z,18.40
2022-12-11T11:59:07.025Z,18.58
2022-12-11T12:02:18.882Z,18.64
2022-12-11T12:05:32.855Z,18.70
2022-12-11T12:08:48.156Z,18.65
2022-12-11T12:12:12.074Z,18.61
2022-12-11T12:15:20.904Z,18.58
2022-12-11T12:18:47.209Z,18.64
2022-12-11T12:21:51.427Z,18.59
2022-12-11T12:25:03.556Z,18.47
2022-12-11T12:28:18.810Z,18.55
2022-12-11T12:31:34.325Z,18.59
2022-12-11T12:35:16.446Z,18.56
2022-12-11T12:38:54.275Z,18.56
2022-12-11T12:42:31.203Z,18.43
2022-12-11T12:45:54.959Z,18.57
2022-12-11T12:48:59.676Z,18.49
2022-12-11T12:52:05.086Z,18.66
2022-12-11T12:55:14.593Z,18.58
2022-12-11T12:58:35.082Z,18.65
2022-12-11T13:01:39.450Z,18.69
2022-12-11T13:04:59.655Z,18.46
2022-12-11T13:08:06.417Z,18.58
2022-12-11T13:11:11.816Z,18.86
2022-12-11T13:14:14.952Z,18.64
2022-12-11T13:17:21.174Z,18.60
2022-12-11T13:20:26.937Z,18.82
2022-12-11T13:23:35.013Z,18.70
2022-12-11T13:26:38.283Z,18.47
2022-12-11T13:29:42.946Z,18.55
2022-12-11T13:32:55.142Z,18.69
2022-12-11T13:36:24.088Z,18.51
2022-12-11T13:39:30.501Z,18.53
2022-12-11T13:42:43.624Z,18.57
2022-12-11T13:45:47.984Z,18.53
2022-12-11T13:49:02.900Z,18.50
2022-12-11T13:52:06.755Z,18.49
2022-12-11T13:55:28.468Z,18.63
2022-12-11T13:58:35.714Z,18.64
2022-12-11T14:01:41.458Z,18.35
2022-12-11T14:04:44.813Z,18.33
2022-12-11T14:07:50.728Z,18.62
2022-12-11T14:10:55.987Z,18.50
2022-12-11T14:14:01.073Z,18.31
2022-12-11T14:17:06.783Z,18.21
2022-12-11T14:20:22.666Z,18.37
2022-12-11T14:23:28.182Z,18.12
2022-12-11T14:26:34.335Z,18.21
2022-12-11T14:29:37.678Z,18.15
2022-12-11T14:32:46.482Z,17.99
2022-12-11T14:35:50.193Z,17.98
2022-12-11T14:39:27.983Z,18.27
2022-12-11T14:42:46.991Z,18.01
2022-12-11T14:45:51.387Z,17.76
2022-12-11T14:49:01.189Z,17.91
2022-12-11T14:52:05.491Z,18.19
2022-12-11T14:55:34.313Z,17.92
2022-12-11T14:58:46.967Z,17.91
2022-12-11T15:02:01.665Z,18.13
2022-12-11T15:05:19.584Z,18.32
2022-12-11T15:08:27.004Z,18.32
2022-12-11T15:11:32.756Z,18.22
2022-12-11T15:14:35.935Z,18.23
2022-12-11T15:17:41.082Z,18.36
2022-12-11T15:20:44.317Z,18.47
2022-12-11T15:23:51.070Z,18.26
2022-12-11T15:26:59.893Z,17.85
2022-12-11T15:30:15.476Z,18.13
2022-12-11T15:33:20.387Z,18.19
2022-12-11T15:36:34.913Z,18.36
2022-12-11T15:39:38.174Z,18.27
2022-12-11T15:42:42.854Z,18.39
2022-12-11T15:45:48.108Z,18.37
2022-12-11T15:48:51.871Z,18.65
2022-12-11T15:51:55.068Z,18.53
2022-12-11T15:54:58.325Z,18.45
2022-12-11T15:58:05.204Z,18.59
2022-12-11T16:01:08.465Z,18.42
2022-12-11T16:04:11.733Z,18.67
2022-12-11T16:07:20.598Z,18.58
2022-12-11T16:10:23.973Z,18.36
2022-12-11T16:13:27.169Z,18.26
2022-12-11T16:16:30.674Z,18.25
2022-12-11T16:19:34.960Z,18.49
2022-12-11T16:22:38.279Z,18.49
2022-12-11T16:25:44.162Z,18.79
2022-12-11T16:28:49.339Z,18.72
2022-12-11T16:31:52.584Z,18.73
2022-12-11T16:34:55.851Z,19.06
2022-12-11T16:38:01.550Z,18.97
2022-12-11T16:41:04.772Z,18.84
2022-12-11T16:44:08.044Z,18.67
2022-12-11T16:47:11.420Z,18.70
2022-12-11T16:50:15.660Z,18.63
2022-12-11T16:53:18.771Z,18.94
2022-12-11T16:56:21.963Z,18.89
2022-12-11T16:59:25.253Z,19.10
2022-12-11T17:02:29.097Z,18.94
2022-12-11T17:05:32.281Z,18.69
2022-12-11T17:08:35.539Z,18.81
2022-12-11T17:11:38.724Z,18.86
2022-12-11T17:14:41.985Z,19.12
2022-12-11T17:17:45.201Z,19.24
2022-12-11T17:20:48.398Z,19.05
2022-12-11T17:23:52.342Z,19.17
2022-12-11T17:26:57.661Z,19.04
2022-12-11T17:30:00.811Z,19.01
2022-12-11T17:33:04.063Z,19.10
2022-12-11T17:36:08.371Z,19.44
2022-12-11T17:39:11.608Z,19.49
2022-12-11T17:42:14.835Z,19.37
2022-12-11T17:45:18.452Z,19.52
2022-12-11T17:48:22.758Z,19.65
2022-12-11T17:51:25.911Z,19.73
2022-12-11T17:54:29.415Z,20.14
2022-12-11T17:57:32.683Z,20.21
2022-12-11T18:00:35.821Z,20.25
2022-12-11T18:03:39.547Z,19.98
2022-12-11T18:06:42.748Z,20.05
2022-12-11T18:09:46.011Z,20.04
2022-12-11T18:12:49.144Z,20.20
2022-12-11T18:16:07.572Z,20.16
2022-12-11T18:19:10.885Z,20.20
2022-12-11T18:22:14.584Z,20.00
2022-12-11T18:25:20.651Z,20.00
2022-12-11T18:28:24.336Z,20.51
2022-12-11T18:31:27.517Z,20.77
2022-12-11T18:34:30.780Z,20.98
2022-12-11T18:37:34.025Z,20.78
2022-12-11T18:40:40.167Z,20.85
2022-12-11T18:43:43.733Z,20.89
2022-12-11T18:46:47.201Z,21.04
2022-12-11T18:49:50.605Z,20.62
2022-12-11T18:52:55.336Z,21.14
2022-12-11T18:56:00.500Z,21.41
2022-12-11T18:59:04.662Z,21.67
2022-12-11T19:02:08.033Z,21.61
2022-12-11T19:05:15.054Z,21.19
2022-12-11T19:08:21.432Z,20.84
2022-12-11T19:11:27.468Z,21.31
2022-12-11T19:14:30.650Z,21.36
2022-12-11T19:17:33.808Z,21.45
2022-12-11T19:20:49.181Z,20.97
2022-12-11T19:23:57.239Z,20.94
2022-12-11T19:27:00.386Z,21.30
2022-12-11T19:30:04.300Z,21.27
2022-12-11T19:33:07.482Z,21.21
2022-12-11T19:36:12.640Z,21.21
2022-12-11T19:39:17.012Z,21.66
2022-12-11T19:42:20.178Z,22.10
2022-12-11T19:45:23.379Z,22.01
2022-12-11T19:48:26.632Z,21.92
2022-12-11T19:51:40.903Z,21.55
2022-12-11T19:54:44.084Z,21.34
2022-12-11T19:57:47.202Z,21.62
2022-12-11T20:00:50.488Z,21.53
2022-12-11T20:03:54.666Z,21.86
2022-12-11T20:06:57.924Z,22.14
2022-12-11T20:10:01.086Z,22.18
2022-12-11T20:13:04.661Z,22.01
2022-12-11T20:16:09.165Z,21.94
2022-12-11T20:19:12.400Z,22.10
2022-12-11T20:22:16.725Z,22.22
2022-12-11T20:25:20.400Z,21.81
2022-12-11T20:28:25.813Z,21.93
2022-12-11T20:31:29.058Z,21.41
2022-12-11T20:34:32.236Z,21.61
2022-12-11T20:37:37.176Z,21.50
2022-12-11T20:40:40.323Z,21.41
2022-12-11T20:43:43.948Z,21.06
2022-12-11T20:46:47.106Z,21.31
2022-12-11T20:49:51.557Z,21.24
2022-12-11T20:52:54.757Z,21.01
2022-12-11T20:55:58.213Z,20.96
2022-12-11T20:59:01.716Z,21.10
2022-12-11T21:02:05.444Z,21.08
2022-12-11T21:05:08.894Z,21.02
2022-12-11T21:08:14.649Z,20.75
2022-12-11T21:11:17.983Z,20.60
2022-12-11T21:14:22.072Z,20.44
2022-12-11T21:17:25.390Z,20.43
2022-12-11T21:20:28.673Z,20.11
2022-12-11T21:23:32.373Z,20.13
2022-12-11T21:26:36.167Z,20.21
2022-12-11T21:29:39.343Z,20.23
2022-12-11T21:32:44.861Z,19.91
2022-12-11T21:35:55.574Z,19.71
2022-12-11T21:39:00.335Z,19.75
2022-12-11T21:42:03.704Z,19.85
2022-12-11T21:48:31.099Z,19.99
2022-12-11T21:51:39.370Z,19.91
2022-12-11T21:54:44.658Z,19.56
2022-12-11T21:57:47.869Z,19.54
2022-12-11T22:00:51.183Z,19.60
2022-12-11T22:03:54.866Z,19.51
2022-12-11T22:06:58.084Z,19.47
2022-12-11T22:10:01.286Z,19.61
2022-12-11T22:13:06.692Z,19.17
2022-12-11T22:16:09.967Z,19.33
2022-12-11T22:19:13.312Z,19.29
2022-12-11T22:22:16.578Z,19.22
2022-12-11T22:25:22.072Z,19.39
2022-12-11T22:28:25.417Z,19.22
2022-12-11T22:31:29.010Z,18.95
2022-12-11T22:34:32.238Z,19.05
2022-12-11T22:37:35.454Z,18.93
2022-12-11T22:40:42.153Z,18.61
2022-12-11T22:43:45.515Z,18.64
2022-12-11T22:46:50.550Z,18.44
2022-12-11T22:49:56.921Z,18.52
2022-12-11T22:53:00.116Z,18.20
2022-12-11T22:56:07.612Z,18.24
2022-12-11T22:59:13.378Z,18.37
2022-12-11T23:02:16.781Z,18.32
2022-12-11T23:05:20.189Z,18.31
2022-12-11T23:08:23.482Z,18.30
2022-12-11T23:11:32.566Z,18.20
2022-12-11T23:14:38.256Z,18.21
2022-12-11T23:17:42.407Z,18.06
2022-12-11T23:20:46.623Z,18.00
2022-12-11T23:23:50.828Z,18.18
2022-12-11T23:26:54.091Z,18.10
2022-12-11T23:29:57.543Z,17.87
2022-12-11T23:33:00.720Z,17.92
2022-12-11T23:36:04.849Z,18.01
2022-12-11T23:39:08.109Z,17.83
2022-12-11T23:42:12.481Z,17.79
2022-12-11T23:45:15.803Z,17.89
2022-12-11T23:48:19.756Z,17.73
2022-12-11T23:51:24.849Z,17.72
2022-12-11T23:54:28.419Z,17.71
2022-12-11T23:57:31.608Z,17.78
